createdAt,value
2024-02-23T00:01:31.650Z,12.23
2024-02-23T00:06:35.456Z,12.23
2024-02-23T00:11:46.197Z,12.32
2024-02-23T00:16:49.059Z,12.32
2024-02-23T00:21:52.628Z,12.23
2024-02-23T00:26:55.486Z,12.23
2024-02-23T00:31:58.136Z,12.07
2024-02-23T00:37:00.635Z,12.01
2024-02-23T00:42:03.142Z,11.94
2024-02-23T00:47:08.071Z,12.06
2024-02-23T00:52:10.869Z,12.09
2024-02-23T00:57:13.306Z,12.20
2024-02-23T01:02:15.862Z,12.29
2024-02-23T01:07:18.345Z,12.21
2024-02-23T01:12:21.034Z,12.17
2024-02-23T01:17:23.594Z,12.25
2024-02-23T01:22:26.029Z,12.27
2024-02-23T01:27:32.399Z,12.27
2024-02-23T01:32:38.565Z,12.33
2024-02-23T01:37:41.308Z,12.32
2024-02-23T01:42:43.734Z,12.22
2024-02-23T01:47:46.331Z,12.17
2024-02-23T01:52:49.642Z,12.10
2024-02-23T01:57:52.273Z,12.17
2024-02-23T02:02:55.310Z,12.22
2024-02-23T02:08:01.629Z,12.18
2024-02-23T02:13:05.634Z,12.14
2024-02-23T02:18:08.120Z,12.07
2024-02-23T02:23:11.905Z,12.09
2024-02-23T02:28:14.939Z,12.21
2024-02-23T02:33:17.647Z,12.30
2024-02-23T02:38:20.260Z,12.36
2024-02-23T02:43:22.745Z,12.32
2024-02-23T02:48:25.950Z,12.32
2024-02-23T02:53:28.464Z,12.32
2024-02-23T02:58:31.293Z,12.23
2024-02-23T03:03:33.809Z,12.21
2024-02-23T03:08:36.329Z,12.14
2024-02-23T03:13:39.310Z,12.04
2024-02-23T03:18:41.723Z,12.03
2024-02-23T03:23:44.210Z,11.99
2024-02-23T03:28:46.696Z,12.02
2024-02-23T03:33:49.170Z,12.08
2024-02-23T03:38:51.612Z,12.16
2024-02-23T03:43:54.013Z,12.07
2024-02-23T03:48:57.492Z,12.09
2024-02-23T03:53:59.975Z,12.13
2024-02-23T03:59:02.441Z,12.16
2024-02-23T04:04:06.077Z,12.09
2024-02-23T04:09:09.622Z,12.07
2024-02-23T04:14:12.138Z,11.92
2024-02-23T04:19:15.159Z,11.79
2024-02-23T04:24:17.604Z,11.76
2024-02-23T04:29:20.071Z,11.69
2024-02-23T04:34:22.624Z,11.66
2024-02-23T04:39:25.183Z,11.66
2024-02-23T04:44:27.603Z,11.67
2024-02-23T04:49:30.067Z,11.69
2024-02-23T04:54:32.544Z,11.73
2024-02-23T04:59:35.092Z,11.90
2024-02-23T05:04:37.967Z,11.90
2024-02-23T05:09:41.734Z,11.91
2024-02-23T05:14:44.261Z,11.83
2024-02-23T05:19:47.690Z,11.69
2024-02-23T05:24:50.143Z,11.63
2024-02-23T05:29:52.572Z,11.60
2024-02-23T05:34:55.263Z,11.76
2024-02-23T05:40:00.688Z,11.82
2024-02-23T05:45:05.520Z,11.90
2024-02-23T05:50:11.244Z,11.98
2024-02-23T05:55:13.932Z,12.06
2024-02-23T06:00:19.906Z,12.15
2024-02-23T06:05:22.401Z,12.20
2024-02-23T06:10:25.807Z,12.20
2024-02-23T06:15:28.461Z,12.26
2024-02-23T06:20:30.981Z,12.26
2024-02-23T06:25:33.413Z,12.26
2024-02-23T06:30:35.964Z,12.32
2024-02-23T06:35:38.557Z,12.37
2024-02-23T06:40:48.789Z,12.46
2024-02-23T06:45:55.491Z,12.46
2024-02-23T06:50:58.708Z,12.53
2024-02-23T06:56:01.844Z,12.64
2024-02-23T07:01:06.861Z,12.73
2024-02-23T07:06:11.182Z,12.87
2024-02-23T07:11:13.839Z,12.93
2024-02-23T07:16:16.436Z,12.93
2024-02-23T07:21:19.658Z,12.95
2024-02-23T07:26:23.256Z,12.91
2024-02-23T07:31:25.830Z,13.05
2024-02-23T07:36:28.372Z,13.20
2024-02-23T07:41:30.885Z,13.36
2024-02-23T07:46:33.281Z,13.50
2024-02-23T07:51:35.801Z,13.59
2024-02-23T07:56:39.670Z,13.64
2024-02-23T08:01:43.206Z,13.74
2024-02-23T08:06:45.665Z,13.84
2024-02-23T08:11:48.608Z,13.97
2024-02-23T08:16:51.249Z,14.06
2024-02-23T08:21:54.030Z,14.14
2024-02-23T08:26:56.477Z,14.28
2024-02-23T08:31:58.940Z,14.39
2024-02-23T08:37:02.695Z,14.50
2024-02-23T08:42:05.458Z,14.52
2024-02-23T08:47:10.682Z,14.62
2024-02-23T08:52:13.105Z,14.74
2024-02-23T08:57:21.705Z,14.84
2024-02-23T09:02:25.167Z,15.00
2024-02-23T09:07:27.650Z,15.03
2024-02-23T09:12:30.404Z,15.09
2024-02-23T09:17:32.924Z,15.14
2024-02-23T09:22:37.741Z,15.11
2024-02-23T09:27:44.239Z,15.17
2024-02-23T09:32:47.089Z,15.20
2024-02-23T09:37:49.631Z,15.22
2024-02-23T09:42:58.139Z,15.27
2024-02-23T09:48:01.821Z,15.33
2024-02-23T09:53:05.911Z,15.40
2024-02-23T09:58:10.939Z,15.49
2024-02-23T10:03:13.533Z,15.62
2024-02-23T10:08:16.247Z,15.71
2024-02-23T10:13:22.872Z,15.74
2024-02-23T10:18:28.464Z,15.18
2024-02-23T10:23:38.044Z,15.51
2024-02-23T10:28:41.275Z,15.01
2024-02-23T10:33:45.716Z,13.85
2024-02-23T10:38:49.658Z,14.10
2024-02-23T10:43:53.775Z,14.67
2024-02-23T10:48:56.612Z,14.99
2024-02-23T10:54:00.947Z,14.25
2024-02-23T10:59:03.968Z,13.62
2024-02-23T11:04:08.690Z,14.29
2024-02-23T11:09:14.279Z,14.41
2024-02-23T11:14:16.686Z,13.46
2024-02-23T11:19:20.109Z,13.86
2024-02-23T11:24:26.964Z,14.45
2024-02-23T11:29:33.678Z,13.80
2024-02-23T11:34:36.182Z,12.97
2024-02-23T11:39:40.273Z,13.03
2024-02-23T11:44:42.809Z,13.11
2024-02-23T11:49:45.432Z,13.50
2024-02-23T11:54:47.965Z,13.06
2024-02-23T11:59:51.883Z,12.63
2024-02-23T12:04:54.713Z,12.99
2024-02-23T12:09:58.082Z,13.68
2024-02-23T12:15:01.093Z,13.07
2024-02-23T12:20:04.481Z,12.52
2024-02-23T12:25:07.464Z,12.11
2024-02-23T12:30:19.416Z,11.83
2024-02-23T12:35:22.488Z,11.64
2024-02-23T12:40:25.947Z,11.51
2024-02-23T12:45:28.460Z,11.46
2024-02-23T12:50:32.338Z,11.44
2024-02-23T12:55:35.344Z,12.22
2024-02-23T13:00:37.839Z,13.43
2024-02-23T13:05:40.695Z,13.31
2024-02-23T13:10:43.196Z,12.54
2024-02-23T13:15:46.886Z,12.09
2024-02-23T13:20:49.786Z,11.80
2024-02-23T13:25:52.324Z,11.57
2024-02-23T13:30:54.880Z,11.43
2024-02-23T13:35:57.435Z,11.31
2024-02-23T13:40:59.954Z,11.83
2024-02-23T13:46:05.249Z,12.89
2024-02-23T13:51:08.436Z,13.06
2024-02-23T13:56:11.579Z,12.26
2024-02-23T14:01:14.021Z,11.72
2024-02-23T14:06:16.533Z,11.56
2024-02-23T14:11:19.792Z,12.45
2024-02-23T14:16:24.437Z,12.78
2024-02-23T14:21:27.586Z,12.11
2024-02-23T14:26:30.089Z,11.69
2024-02-23T14:31:33.328Z,11.44
2024-02-23T14:36:35.938Z,11.75
2024-02-23T14:41:38.504Z,12.93
2024-02-23T14:46:43.842Z,13.21
2024-02-23T14:51:48.431Z,12.34
2024-02-23T14:56:50.869Z,11.71
2024-02-23T15:01:53.423Z,11.34
2024-02-23T15:06:56.847Z,12.11
2024-02-23T15:11:59.511Z,12.90
2024-02-23T15:17:02.158Z,13.36
2024-02-23T15:22:06.285Z,12.92
2024-02-23T15:27:10.133Z,11.85
2024-02-23T15:32:12.895Z,11.16
2024-02-23T15:37:15.493Z,11.55
2024-02-23T15:42:21.151Z,12.37
2024-02-23T15:47:23.974Z,12.83
2024-02-23T15:52:27.234Z,12.70
2024-02-23T15:57:29.859Z,11.65
2024-02-23T16:02:32.628Z,11.01
2024-02-23T16:07:35.261Z,10.60
2024-02-23T16:12:38.006Z,10.27
2024-02-23T16:17:40.560Z,9.97
2024-02-23T16:22:44.798Z,10.17
2024-02-23T16:27:47.533Z,11.32
2024-02-23T16:32:50.555Z,12.01
2024-02-23T16:37:53.645Z,12.44
2024-02-23T16:42:57.660Z,12.75
2024-02-23T16:48:02.229Z,12.42
2024-02-23T16:53:04.989Z,11.31
2024-02-23T16:58:07.556Z,10.64
2024-02-23T17:03:10.127Z,10.17
2024-02-23T17:08:14.736Z,9.80
2024-02-23T17:13:17.475Z,9.92
2024-02-23T17:18:23.787Z,11.00
2024-02-23T17:23:26.384Z,11.76
2024-02-23T17:28:28.924Z,12.25
2024-02-23T17:33:31.493Z,12.63
2024-02-23T17:38:34.082Z,12.92
2024-02-23T17:43:36.915Z,12.69
2024-02-23T17:48:39.826Z,11.46
2024-02-23T17:53:42.489Z,10.55
2024-02-23T17:58:45.216Z,9.91
2024-02-23T18:03:48.408Z,9.88
2024-02-23T18:08:51.043Z,11.02
2024-02-23T18:13:56.282Z,11.75
2024-02-23T18:19:00.651Z,12.25
2024-02-23T18:24:03.494Z,12.61
2024-02-23T18:29:06.098Z,12.32
2024-02-23T18:34:08.971Z,11.12
2024-02-23T18:39:12.394Z,10.32
2024-02-23T18:44:14.951Z,9.71
2024-02-23T18:49:17.477Z,9.18
2024-02-23T18:54:20.024Z,9.24
2024-02-23T18:59:22.868Z,10.35
2024-02-23T19:04:25.500Z,11.00
2024-02-23T19:09:30.554Z,11.39
2024-02-23T19:14:35.026Z,11.72
2024-02-23T19:19:37.646Z,12.03
2024-02-23T19:24:40.279Z,12.24
2024-02-23T19:29:42.737Z,12.39
2024-02-23T19:34:45.653Z,12.04
2024-02-23T19:39:48.171Z,10.67
2024-02-23T19:44:51.612Z,9.79
2024-02-23T19:49:56.353Z,9.67
2024-02-23T19:54:58.903Z,10.68
2024-02-23T20:00:04.554Z,11.32
2024-02-23T20:05:07.599Z,11.70
2024-02-23T20:10:10.668Z,11.99
2024-02-23T20:15:13.475Z,12.20
2024-02-23T20:20:19.401Z,12.36
2024-02-23T20:25:23.588Z,12.47
2024-02-23T20:30:28.233Z,12.53
2024-02-23T20:35:30.945Z,12.12
2024-02-23T20:40:33.475Z,10.77
2024-02-23T20:45:37.179Z,9.78
2024-02-23T20:50:39.780Z,9.88
2024-02-23T20:55:42.592Z,10.79
2024-02-23T21:00:45.118Z,11.32
2024-02-23T21:05:48.423Z,11.67
2024-02-23T21:10:51.297Z,11.95
2024-02-23T21:15:56.248Z,12.13
2024-02-23T21:21:04.342Z,12.28
2024-02-23T21:26:12.982Z,12.49
2024-02-23T21:31:21.960Z,12.68
2024-02-23T21:36:30.604Z,12.93
2024-02-23T21:41:39.524Z,12.62
2024-02-23T21:46:47.910Z,11.35
2024-02-23T21:51:56.478Z,10.41
2024-02-23T21:57:05.128Z,10.18
2024-02-23T22:02:13.769Z,11.01
2024-02-23T22:07:21.989Z,11.54
2024-02-23T22:12:32.141Z,11.90
2024-02-23T22:17:41.291Z,12.16
2024-02-23T22:22:49.806Z,12.28
2024-02-23T22:27:58.557Z,12.21
2024-02-23T22:33:09.434Z,12.07
2024-02-23T22:38:16.498Z,12.16
2024-02-23T22:43:24.788Z,12.24
2024-02-23T22:53:46.051Z,12.25
2024-02-23T22:58:54.543Z,12.27
2024-02-23T23:04:04.218Z,12.16
2024-02-23T23:09:12.780Z,12.11
2024-02-23T23:14:24.912Z,12.16
2024-02-23T23:19:34.266Z,12.23
2024-02-23T23:24:42.735Z,12.33
2024-02-23T23:29:51.090Z,12.39
2024-02-23T23:34:59.692Z,12.44
2024-02-23T23:40:08.338Z,12.52
2024-02-23T23:45:17.423Z,12.54
2024-02-23T23:50:25.682Z,12.53
2024-02-23T23:55:34.214Z,12.48
